Time;durP1;ratioP1;P1;durP2;ratioP2;P2;SDS_P1;SDS_P2;PMS_P1;PMS_P2;Temp;Humidity;BMP_temperature;BMP_pressure;BME280_temperature;BME280_humidity;BME280_pressure;Samples;Min_cycle;Max_cycle;Signal;HPM_P1;HPM_P2
2023/10/29 00:00:57;;;;;;;1.95;1.10;;;15.30;99.90;;;;;;4974901;28;20191;-66
2023/10/29 00:03:27;;;;;;;1.90;1.40;;;15.30;99.90;;;;;;4966387;28;20185;-66
2023/10/29 00:05:55;;;;;;;2.28;1.17;;;15.30;99.90;;;;;;4977086;28;20500;-66
2023/10/29 00:08:21;;;;;;;4.00;1.13;;;15.30;99.90;;;;;;4988643;28;20215;-66
2023/10/29 00:10:46;;;;;;;1.50;1.00;;;15.30;99.90;;;;;;4958993;28;20180;-66
2023/10/29 00:13:12;;;;;;;2.10;1.10;;;15.30;99.90;;;;;;4975845;28;20216;-66
2023/10/29 00:15:40;;;;;;;1.92;1.00;;;15.30;99.90;;;;;;4988406;28;20184;-66
2023/10/29 00:18:12;;;;;;;1.45;1.00;;;15.30;99.90;;;;;;4982125;28;20172;-66
2023/10/29 00:20:40;;;;;;;2.13;1.33;;;15.30;99.90;;;;;;4976614;28;20181;-66
2023/10/29 00:23:07;;;;;;;1.92;0.93;;;15.30;99.90;;;;;;4978070;28;20278;-66
2023/10/29 00:25:33;;;;;;;1.02;0.90;;;15.20;99.90;;;;;;4994295;28;20175;-66
2023/10/29 00:27:59;;;;;;;1.13;0.90;;;15.30;99.90;;;;;;4967139;28;20283;-66
2023/10/29 00:30:24;;;;;;;1.88;0.90;;;15.30;99.90;;;;;;4977355;28;20184;-66
2023/10/29 00:32:55;;;;;;;2.13;1.00;;;15.30;99.90;;;;;;4974895;28;20207;-66
2023/10/29 00:35:23;;;;;;;2.28;1.00;;;15.30;99.90;;;;;;4961996;28;20192;-66
2023/10/29 00:37:53;;;;;;;1.48;0.77;;;15.40;99.90;;;;;;4971534;28;20219;-66
2023/10/29 00:40:22;;;;;;;1.63;0.75;;;15.30;99.90;;;;;;4983134;28;20180;-66
2023/10/29 00:42:50;;;;;;;1.17;0.82;;;15.30;99.90;;;;;;4975300;28;20243;-66
2023/10/29 00:45:15;;;;;;;1.80;1.05;;;15.40;99.90;;;;;;4958332;28;20272;-67
2023/10/29 00:47:41;;;;;;;1.27;0.88;;;15.40;99.90;;;;;;4973529;28;20270;-67
2023/10/29 00:50:10;;;;;;;1.77;0.80;;;15.40;99.90;;;;;;4968493;28;20171;-66
2023/10/29 00:52:38;;;;;;;1.58;0.93;;;15.40;99.90;;;;;;4975379;28;20199;-66
2023/10/29 00:55:04;;;;;;;2.00;1.00;;;15.40;99.90;;;;;;4975381;28;20287;-66
2023/10/29 00:57:30;;;;;;;2.10;1.00;;;15.50;99.90;;;;;;4985241;28;20235;-66
2023/10/29 00:59:56;;;;;;;3.50;1.00;;;15.50;99.90;;;;;;4975151;28;20176;-67
2023/10/29 01:02:22;;;;;;;2.40;1.13;;;15.60;99.90;;;;;;4973783;28;20236;-66
2023/10/29 01:04:50;;;;;;;1.90;1.00;;;15.70;99.90;;;;;;4972583;28;20203;-67
2023/10/29 01:07:18;;;;;;;1.02;0.80;;;15.70;99.90;;;;;;4977840;28;20206;-65
2023/10/29 01:09:47;;;;;;;1.45;0.90;;;15.70;99.90;;;;;;4977266;28;20191;-67
2023/10/29 01:12:15;;;;;;;1.50;0.90;;;15.80;99.90;;;;;;4970783;28;20182;-66
2023/10/29 01:14:41;;;;;;;1.70;1.00;;;15.80;99.90;;;;;;4992859;28;20249;-66
2023/10/29 01:17:09;;;;;;;1.73;0.88;;;15.90;99.90;;;;;;4977884;28;20270;-67
2023/10/29 01:19:35;;;;;;;1.35;0.98;;;15.90;99.90;;;;;;4971664;28;20235;-67
2023/10/29 01:22:05;;;;;;;1.80;1.00;;;15.90;99.90;;;;;;4974477;28;20200;-67
2023/10/29 01:24:30;;;;;;;2.35;0.85;;;16.00;99.90;;;;;;4988762;28;20179;-66
2023/10/29 01:26:58;;;;;;;2.53;0.90;;;15.90;99.90;;;;;;4983462;28;20180;-67
2023/10/29 01:29:24;;;;;;;2.55;0.98;;;16.00;99.90;;;;;;4986921;28;20175;-66
2023/10/29 01:31:50;;;;;;;2.60;1.10;;;15.90;99.90;;;;;;4975454;28;20184;-66
2023/10/29 01:34:17;;;;;;;2.80;0.93;;;15.90;99.90;;;;;;4970878;28;20249;-67
2023/10/29 01:36:42;;;;;;;2.25;1.00;;;15.90;99.90;;;;;;4974275;28;20254;-67
2023/10/29 01:39:08;;;;;;;1.52;0.90;;;16.00;99.90;;;;;;4974254;28;20168;-66
2023/10/29 01:41:36;;;;;;;1.05;0.80;;;15.90;99.90;;;;;;4977692;28;20197;-67
2023/10/29 01:44:02;;;;;;;2.00;0.75;;;15.90;99.90;;;;;;4973109;28;20188;-67
2023/10/29 01:46:28;;;;;;;2.92;0.80;;;15.90;99.90;;;;;;4982568;28;20183;-66
2023/10/29 01:48:56;;;;;;;1.30;0.95;;;15.90;99.90;;;;;;4985108;28;20248;-67
2023/10/29 01:51:22;;;;;;;1.30;0.80;;;15.90;99.90;;;;;;4976041;28;20180;-67
2023/10/29 01:53:47;;;;;;;1.63;1.02;;;15.90;99.90;;;;;;4967372;28;20295;-66
2023/10/29 01:56:15;;;;;;;1.20;0.98;;;15.90;99.90;;;;;;4977463;28;20271;-67
2023/10/29 01:58:41;;;;;;;2.33;0.80;;;15.90;99.90;;;;;;4983762;28;20218;-66
2023/10/29 02:01:13;;;;;;;0.80;0.70;;;15.90;99.90;;;;;;4974979;28;20212;-67
2023/10/29 02:03:38;;;;;;;1.60;0.90;;;16.00;99.90;;;;;;4977957;28;20180;-66
2023/10/29 02:06:13;;;;;;;3.80;1.00;;;16.00;99.90;;;;;;4974773;28;20184;-66
2023/10/29 02:08:41;;;;;;;1.00;0.73;;;16.00;99.90;;;;;;4998313;28;20198;-66
2023/10/29 02:11:07;;;;;;;1.55;0.80;;;16.10;99.90;;;;;;4987264;28;20234;-66
2023/10/29 02:13:37;;;;;;;1.10;0.60;;;16.10;99.90;;;;;;4982937;28;20211;-65
2023/10/29 02:16:06;;;;;;;2.95;0.90;;;16.10;99.90;;;;;;4985136;28;20226;-66
2023/10/29 02:18:31;;;;;;;2.92;0.90;;;16.10;99.90;;;;;;4996732;28;20194;-66
2023/10/29 02:20:59;;;;;;;2.05;0.70;;;16.10;99.90;;;;;;4993789;28;20183;-66
2023/10/29 02:23:24;;;;;;;3.45;0.82;;;16.10;99.90;;;;;;4981470;28;20244;-65
2023/10/29 02:25:50;;;;;;;3.65;0.88;;;16.10;99.90;;;;;;4964475;28;20275;-66
2023/10/29 02:28:16;;;;;;;1.60;0.75;;;16.00;99.90;;;;;;4973522;28;20347;-66
2023/10/29 02:30:44;;;;;;;2.00;0.80;;;16.00;99.90;;;;;;4977384;28;20176;-66
2023/10/29 02:33:12;;;;;;;1.33;0.80;;;15.90;99.90;;;;;;4980632;28;20230;-66
2023/10/29 02:35:37;;;;;;;1.00;0.80;;;15.90;99.90;;;;;;4978875;28;20200;-66
2023/10/29 02:38:03;;;;;;;1.55;0.77;;;15.90;99.90;;;;;;4984548;28;20202;-66
2023/10/29 02:40:31;;;;;;;1.65;0.90;;;15.80;99.90;;;;;;4970141;28;20181;-66
2023/10/29 02:42:56;;;;;;;1.80;0.90;;;15.80;99.90;;;;;;4965540;28;20213;-66
2023/10/29 02:45:27;;;;;;;1.98;0.90;;;15.70;99.90;;;;;;4972017;28;20247;-66
2023/10/29 02:47:54;;;;;;;0.93;0.70;;;15.70;99.90;;;;;;4983917;28;20195;-66
2023/10/29 02:50:20;;;;;;;2.17;0.90;;;15.70;99.90;;;;;;4981473;28;20192;-66
2023/10/29 02:52:46;;;;;;;2.05;0.93;;;15.70;99.90;;;;;;4993103;28;20262;-66
2023/10/29 02:55:11;;;;;;;2.33;0.70;;;15.70;99.90;;;;;;4987010;28;20181;-65
2023/10/29 02:57:37;;;;;;;2.13;0.70;;;15.70;99.90;;;;;;4976046;28;20176;-66
2023/10/29 03:00:07;;;;;;;1.38;0.70;;;15.70;99.90;;;;;;4968439;28;20185;-66
2023/10/29 03:02:33;;;;;;;1.25;0.60;;;15.80;99.90;;;;;;4994439;28;20176;-66
2023/10/29 03:05:03;;;;;;;2.03;0.55;;;15.80;99.90;;;;;;4978014;28;20176;-66
2023/10/29 03:07:31;;;;;;;2.25;0.80;;;15.80;99.90;;;;;;4983263;28;20176;-66
2023/10/29 03:09:56;;;;;;;0.82;0.60;;;15.80;99.90;;;;;;4983450;28;20494;-66
2023/10/29 03:12:22;;;;;;;0.90;0.80;;;15.80;99.90;;;;;;4977660;28;20266;-66
2023/10/29 03:14:50;;;;;;;1.08;0.68;;;15.80;99.90;;;;;;4972556;28;20184;-66
2023/10/29 03:17:15;;;;;;;1.85;0.88;;;15.80;99.90;;;;;;4958240;28;20260;-67
2023/10/29 03:19:41;;;;;;;0.80;0.60;;;15.80;99.90;;;;;;4962637;28;20212;-67
2023/10/29 03:22:07;;;;;;;1.52;0.68;;;15.70;99.90;;;;;;4974258;28;20168;-66
2023/10/29 03:24:32;;;;;;;1.45;0.63;;;15.70;99.90;;;;;;4980695;28;20254;-66
2023/10/29 03:26:58;;;;;;;1.30;0.70;;;15.70;99.90;;;;;;4977191;28;20238;-66
2023/10/29 03:29:23;;;;;;;1.30;0.70;;;15.70;99.90;;;;;;4981593;28;20168;-66
2023/10/29 03:31:53;;;;;;;1.95;0.80;;;15.60;99.90;;;;;;4972250;28;20187;-66
2023/10/29 03:34:19;;;;;;;1.15;0.77;;;15.60;99.90;;;;;;4966037;28;20207;-67
2023/10/29 03:36:47;;;;;;;0.95;0.60;;;15.60;99.90;;;;;;4971897;28;20279;-65
2023/10/29 03:39:13;;;;;;;1.58;0.60;;;15.60;99.90;;;;;;4982229;28;20199;-65
2023/10/29 03:41:38;;;;;;;1.20;0.80;;;15.60;99.90;;;;;;4976991;28;20212;-66
2023/10/29 03:44:04;;;;;;;1.58;0.80;;;15.60;99.90;;;;;;4985525;28;20199;-66
2023/10/29 03:46:30;;;;;;;1.60;0.63;;;15.60;99.90;;;;;;4976079;28;20252;-66
2023/10/29 03:48:56;;;;;;;0.63;0.60;;;15.60;99.90;;;;;;4975570;28;20237;-66
2023/10/29 03:51:21;;;;;;;1.73;0.70;;;15.60;99.90;;;;;;4972205;28;20271;-65
2023/10/29 03:53:47;;;;;;;2.20;1.00;;;15.70;99.90;;;;;;4973683;28;20204;-66
2023/10/29 03:56:14;;;;;;;1.00;0.60;;;15.70;99.90;;;;;;4972823;28;20184;-67
2023/10/29 03:58:40;;;;;;;2.08;0.93;;;15.70;99.90;;;;;;4979142;28;20198;-66
2023/10/29 04:01:08;;;;;;;2.08;0.80;;;15.70;99.90;;;;;;4975267;28;20180;-66
2023/10/29 04:03:36;;;;;;;1.35;0.88;;;15.80;99.90;;;;;;4976156;28;20200;-66
2023/10/29 04:06:08;;;;;;;1.25;0.73;;;15.90;99.90;;;;;;4977901;28;20270;-66
2023/10/29 04:08:36;;;;;;;1.30;0.60;;;15.90;99.90;;;;;;4973946;28;20271;-66
2023/10/29 04:11:02;;;;;;;1.42;0.65;;;16.00;99.90;;;;;;4975766;28;20239;-66
2023/10/29 04:13:28;;;;;;;1.05;0.65;;;16.00;99.90;;;;;;4975210;28;20216;-66
2023/10/29 04:15:56;;;;;;;1.35;0.63;;;16.00;99.90;;;;;;4976790;28;20264;-66
2023/10/29 04:18:24;;;;;;;1.73;0.70;;;16.00;99.90;;;;;;4974249;28;20207;-76
2023/10/29 04:20:52;;;;;;;1.65;0.70;;;16.10;99.90;;;;;;4974068;28;20176;-76
2023/10/29 04:23:20;;;;;;;0.70;0.60;;;16.10;99.90;;;;;;4973284;28;20213;-77
2023/10/29 04:25:48;;;;;;;1.50;0.70;;;16.10;99.90;;;;;;4983830;28;20188;-71
2023/10/29 04:28:13;;;;;;;1.35;0.68;;;16.10;99.90;;;;;;4975362;28;20283;-75
2023/10/29 04:30:41;;;;;;;1.95;0.55;;;16.10;99.90;;;;;;4971739;28;20263;-75
2023/10/29 04:33:09;;;;;;;1.00;0.70;;;16.20;99.90;;;;;;4965614;28;20219;-75
2023/10/29 04:35:35;;;;;;;2.15;0.60;;;16.10;99.90;;;;;;4980567;28;20180;-73
2023/10/29 04:38:02;;;;;;;1.02;0.70;;;16.20;99.90;;;;;;4981406;28;20206;-75
2023/10/29 04:40:28;;;;;;;1.30;0.65;;;16.20;99.90;;;;;;4980523;28;20168;-75
2023/10/29 04:42:54;;;;;;;1.25;0.70;;;16.20;99.90;;;;;;4970773;28;20200;-75
2023/10/29 04:45:19;;;;;;;1.92;0.65;;;16.20;99.90;;;;;;4980270;28;20172;-77
2023/10/29 04:47:47;;;;;;;1.08;0.68;;;16.20;99.90;;;;;;4979970;28;20207;-77
2023/10/29 04:50:17;;;;;;;1.65;0.70;;;16.20;99.90;;;;;;4979091;28;20203;-73
2023/10/29 04:52:45;;;;;;;1.30;0.80;;;16.20;99.90;;;;;;4975428;28;20205;-77
2023/10/29 04:55:10;;;;;;;1.20;0.70;;;16.20;99.90;;;;;;4973038;28;20348;-77
2023/10/29 04:57:39;;;;;;;1.95;0.80;;;16.20;99.90;;;;;;4980350;28;20198;-76
2023/10/29 05:00:08;;;;;;;1.23;0.70;;;16.30;99.90;;;;;;4975456;28;20267;-77
2023/10/29 05:02:35;;;;;;;2.10;0.60;;;16.30;99.90;;;;;;4980979;28;20203;-79
2023/10/29 05:05:10;;;;;;;0.70;0.50;;;16.40;99.90;;;;;;4983008;28;20253;-78
2023/10/29 05:07:36;;;;;;;0.93;0.47;;;16.40;99.90;;;;;;4976060;28;20247;-71
2023/10/29 05:10:03;;;;;;;0.60;0.50;;;16.50;99.90;;;;;;4977006;28;20290;-78
2023/10/29 05:12:28;;;;;;;2.78;0.80;;;16.60;99.90;;;;;;4983135;28;20211;-77
2023/10/29 05:14:56;;;;;;;1.35;0.70;;;16.70;99.90;;;;;;4969653;28;20172;-77
2023/10/29 05:17:24;;;;;;;2.55;0.82;;;16.70;99.90;;;;;;4970353;28;20172;-77
2023/10/29 05:19:54;;;;;;;1.15;0.73;;;16.80;99.90;;;;;;4977290;28;20211;-79
2023/10/29 05:22:20;;;;;;;1.67;0.73;;;16.80;99.90;;;;;;4977693;28;20200;-78
2023/10/29 05:24:46;;;;;;;1.40;0.52;;;16.80;99.90;;;;;;4979456;28;20196;-77
2023/10/29 05:27:11;;;;;;;1.83;0.60;;;16.90;99.90;;;;;;4977220;28;20223;-78
2023/10/29 05:29:39;;;;;;;1.63;0.70;;;16.90;99.90;;;;;;4979163;28;20227;-79
2023/10/29 05:32:08;;;;;;;1.65;0.68;;;16.90;99.90;;;;;;4969221;28;20247;-77
2023/10/29 05:34:34;;;;;;;3.28;0.90;;;17.00;99.90;;;;;;4976844;28;20291;-76
2023/10/29 05:36:59;;;;;;;1.35;0.75;;;17.00;99.90;;;;;;4971786;28;20259;-77
2023/10/29 05:39:27;;;;;;;1.25;0.60;;;17.00;99.90;;;;;;4999264;28;20179;-75
2023/10/29 05:41:58;;;;;;;0.93;0.60;;;17.00;99.90;;;;;;4982949;28;20180;-78
2023/10/29 05:44:24;;;;;;;1.80;0.68;;;17.00;99.90;;;;;;4987512;28;20214;-77
2023/10/29 05:46:49;;;;;;;2.00;0.65;;;17.00;99.90;;;;;;4978687;28;20294;-74
2023/10/29 05:49:17;;;;;;;1.02;0.50;;;17.00;99.90;;;;;;4979621;28;20390;-77
2023/10/29 05:51:43;;;;;;;1.83;0.90;;;17.10;99.90;;;;;;4977767;28;20176;-75
2023/10/29 05:54:11;;;;;;;2.38;0.63;;;17.00;99.90;;;;;;4972891;28;20504;-70
2023/10/29 05:56:37;;;;;;;2.28;0.70;;;17.10;99.90;;;;;;4976232;28;20275;-77
2023/10/29 05:59:02;;;;;;;2.25;0.70;;;17.00;99.90;;;;;;4968795;28;20235;-76
2023/10/29 06:01:30;;;;;;;1.05;0.70;;;17.00;99.90;;;;;;4975238;28;20242;-78
2023/10/29 06:03:55;;;;;;;0.82;0.60;;;17.00;99.90;;;;;;4978279;28;20295;-77
2023/10/29 06:06:23;;;;;;;1.70;0.70;;;17.00;99.90;;;;;;4972492;28;20291;-78
2023/10/29 06:08:49;;;;;;;2.40;0.73;;;16.90;99.90;;;;;;4985036;28;20171;-78
2023/10/29 06:11:14;;;;;;;1.20;0.65;;;17.00;99.90;;;;;;4979532;28;20183;-72
2023/10/29 06:13:43;;;;;;;1.55;0.68;;;16.90;99.90;;;;;;4997142;28;20203;-78
2023/10/29 06:16:11;;;;;;;1.17;0.60;;;16.90;99.90;;;;;;4982068;28;20183;-78
2023/10/29 06:18:37;;;;;;;1.10;0.70;;;16.90;99.90;;;;;;4983303;28;20195;-76
2023/10/29 06:21:06;;;;;;;1.05;0.57;;;16.90;99.90;;;;;;4977249;28;20184;-77
2023/10/29 06:23:34;;;;;;;1.80;0.70;;;16.90;99.90;;;;;;4980832;28;20187;-77
2023/10/29 06:26:02;;;;;;;2.25;0.60;;;16.90;99.90;;;;;;4975280;28;20268;-77
2023/10/29 06:28:27;;;;;;;1.52;0.50;;;16.90;99.90;;;;;;4980020;28;20176;-72
2023/10/29 06:30:53;;;;;;;0.93;0.57;;;16.80;99.90;;;;;;4988861;28;20186;-78
2023/10/29 06:33:18;;;;;;;2.42;0.45;;;16.80;99.90;;;;;;4978403;28;20207;-78
2023/10/29 06:35:44;;;;;;;1.08;0.50;;;16.80;99.90;;;;;;4978359;28;20183;-77
2023/10/29 06:38:10;;;;;;;0.93;0.60;;;16.80;99.90;;;;;;4981770;28;20242;-77
2023/10/29 06:40:35;;;;;;;2.70;0.52;;;16.80;99.90;;;;;;4978867;28;20183;-70
2023/10/29 06:43:01;;;;;;;1.80;0.60;;;16.80;99.90;;;;;;4983431;28;20187;-78
2023/10/29 06:45:29;;;;;;;2.10;1.23;;;16.80;99.90;;;;;;4971730;28;20176;-78
2023/10/29 06:47:57;;;;;;;1.77;1.02;;;16.80;99.90;;;;;;4973076;28;20180;-70
2023/10/29 06:50:25;;;;;;;0.98;0.70;;;16.80;99.90;;;;;;4959109;29;20205;-77
2023/10/29 06:52:50;;;;;;;1.77;0.63;;;16.70;99.90;;;;;;4973687;28;20207;-76
2023/10/29 06:55:18;;;;;;;1.05;0.50;;;16.70;99.90;;;;;;4977900;28;20195;-77
2023/10/29 06:57:46;;;;;;;0.80;0.50;;;16.70;99.90;;;;;;4977827;28;20204;-76
2023/10/29 07:00:12;;;;;;;1.65;0.70;;;16.60;99.90;;;;;;4958919;28;20271;-74
2023/10/29 07:02:38;;;;;;;1.63;0.70;;;16.60;99.90;;;;;;4978619;28;20274;-74
2023/10/29 07:05:08;;;;;;;0.60;0.50;;;16.50;99.90;;;;;;4974206;28;20216;-78
2023/10/29 07:07:36;;;;;;;1.52;0.85;;;16.60;99.90;;;;;;4979353;28;20183;-73
2023/10/29 07:10:04;;;;;;;1.92;0.63;;;16.60;99.90;;;;;;4977583;28;20208;-77
2023/10/29 07:12:32;;;;;;;1.88;0.70;;;16.50;99.90;;;;;;4991789;28;20211;-77
2023/10/29 07:15:00;;;;;;;1.70;0.57;;;16.50;99.90;;;;;;4996785;28;20203;-75
2023/10/29 07:17:25;;;;;;;2.83;1.60;;;16.50;99.90;;;;;;4976890;28;20187;-75
2023/10/29 07:19:52;;;;;;;1.50;0.80;;;16.50;99.90;;;;;;4974128;28;20275;-77
2023/10/29 07:22:18;;;;;;;1.77;0.70;;;16.50;99.90;;;;;;4973903;28;20197;-78
2023/10/29 07:24:44;;;;;;;1.05;0.50;;;16.50;99.90;;;;;;4973831;28;20308;-75
2023/10/29 07:27:12;;;;;;;0.40;0.35;;;16.50;99.90;;;;;;4976098;28;20222;-77
2023/10/29 07:29:37;;;;;;;1.42;0.45;;;16.50;99.90;;;;;;4975014;28;20184;-76
2023/10/29 07:32:06;;;;;;;0.57;0.38;;;16.50;99.90;;;;;;4975981;28;20180;-75
2023/10/29 07:34:32;;;;;;;3.17;0.70;;;16.50;99.90;;;;;;4971695;28;20673;-74
2023/10/29 07:37:00;;;;;;;1.65;0.70;;;16.50;99.90;;;;;;4977257;28;20192;-76
2023/10/29 07:39:25;;;;;;;2.45;0.70;;;16.50;99.90;;;;;;4976364;28;20195;-74
2023/10/29 07:41:53;;;;;;;1.17;0.80;;;16.50;99.90;;;;;;4977096;28;20183;-77
2023/10/29 07:44:19;;;;;;;0.95;0.60;;;16.50;99.90;;;;;;4976649;28;20176;-75
2023/10/29 07:46:47;;;;;;;1.70;1.08;;;16.50;99.90;;;;;;4972652;28;20183;-77
2023/10/29 07:49:12;;;;;;;1.52;0.90;;;16.50;99.90;;;;;;4976412;28;20176;-73
2023/10/29 07:51:38;;;;;;;2.55;0.65;;;16.50;99.90;;;;;;4976706;28;20210;-76
2023/10/29 07:54:06;;;;;;;1.35;0.57;;;16.50;99.90;;;;;;4976553;28;20200;-78
2023/10/29 07:56:35;;;;;;;0.75;0.50;;;16.50;99.90;;;;;;4976533;28;20183;-70
2023/10/29 07:59:03;;;;;;;1.30;0.60;;;16.50;99.90;;;;;;4982299;28;20203;-76
2023/10/29 08:01:31;;;;;;;1.05;0.50;;;16.50;99.90;;;;;;4992385;28;20176;-74
2023/10/29 08:04:01;;;;;;;2.75;0.88;;;16.50;99.90;;;;;;4978376;28;20193;-77
2023/10/29 08:06:29;;;;;;;2.40;0.60;;;16.60;99.90;;;;;;4960672;28;20211;-76
2023/10/29 08:08:54;;;;;;;2.78;0.73;;;16.60;99.90;;;;;;4976836;28;20200;-75
2023/10/29 08:11:23;;;;;;;2.67;0.60;;;16.70;99.90;;;;;;4960364;28;20208;-78
2023/10/29 08:13:50;;;;;;;1.27;0.52;;;16.70;99.90;;;;;;4957689;28;20228;-78
2023/10/29 08:16:15;;;;;;;1.30;0.57;;;16.80;99.90;;;;;;4989003;28;20211;-76
2023/10/29 08:18:41;;;;;;;0.55;0.40;;;16.80;99.90;;;;;;4976829;28;20199;-77
2023/10/29 08:21:07;;;;;;;1.25;0.60;;;16.90;99.90;;;;;;4976340;28;20308;-76
2023/10/29 08:23:33;;;;;;;2.15;1.20;;;16.90;99.90;;;;;;4975970;28;20215;-74
2023/10/29 08:26:01;;;;;;;3.05;1.23;;;17.00;99.90;;;;;;4982780;28;20179;-74
2023/10/29 08:28:27;;;;;;;1.40;0.60;;;17.00;99.90;;;;;;4972512;28;20195;-75
2023/10/29 08:30:56;;;;;;;1.95;0.85;;;17.00;99.90;;;;;;4982907;28;20183;-76
2023/10/29 08:33:22;;;;;;;1.08;0.55;;;17.00;99.90;;;;;;4994630;28;20207;-73
2023/10/29 08:35:47;;;;;;;3.88;0.90;;;17.10;99.90;;;;;;4968409;28;20211;-77
2023/10/29 08:38:13;;;;;;;0.82;0.50;;;17.00;99.90;;;;;;4969206;28;20197;-76
2023/10/29 08:40:39;;;;;;;2.05;1.13;;;17.10;99.90;;;;;;4996899;28;20193;-77
2023/10/29 08:43:07;;;;;;;1.33;0.80;;;17.10;99.90;;;;;;4973019;28;20191;-74
2023/10/29 08:45:36;;;;;;;1.10;0.70;;;17.10;99.90;;;;;;4975940;28;20184;-76
2023/10/29 08:48:02;;;;;;;1.38;0.60;;;17.10;99.90;;;;;;4975555;28;20212;-73
2023/10/29 08:50:30;;;;;;;1.60;0.60;;;17.10;99.90;;;;;;4969304;28;20180;-77
2023/10/29 08:52:58;;;;;;;0.82;0.47;;;17.10;99.90;;;;;;4975381;28;20191;-75
2023/10/29 08:55:28;;;;;;;2.05;0.60;;;17.10;99.90;;;;;;4975282;28;20180;-75
2023/10/29 08:57:54;;;;;;;0.60;0.40;;;17.10;99.90;;;;;;4961635;28;20263;-73
2023/10/29 09:00:19;;;;;;;2.17;0.63;;;17.10;99.90;;;;;;4985715;28;20292;-76
2023/10/29 09:02:47;;;;;;;1.80;0.50;;;17.10;99.90;;;;;;4976241;28;20180;-74
2023/10/29 09:05:15;;;;;;;1.42;0.60;;;17.10;99.90;;;;;;4976997;28;20184;-74
2023/10/29 09:07:41;;;;;;;0.80;0.50;;;17.10;99.90;;;;;;4985723;28;20184;-77
2023/10/29 09:10:07;;;;;;;1.70;0.52;;;17.10;99.90;;;;;;4972391;28;20244;-75
2023/10/29 09:12:32;;;;;;;2.33;0.60;;;17.00;99.90;;;;;;4986065;28;20262;-76
2023/10/29 09:14:58;;;;;;;0.98;0.60;;;17.00;99.90;;;;;;4981095;28;20179;-77
2023/10/29 09:17:23;;;;;;;1.08;0.57;;;17.00;99.90;;;;;;4975238;28;20203;-75
2023/10/29 09:19:49;;;;;;;2.35;0.65;;;17.00;99.90;;;;;;4974972;28;20211;-76
2023/10/29 09:22:17;;;;;;;1.77;0.73;;;17.00;99.90;;;;;;4973084;28;20172;-72
2023/10/29 09:24:44;;;;;;;1.70;0.63;;;17.00;99.90;;;;;;4977601;28;20347;-77
2023/10/29 09:27:10;;;;;;;1.17;0.60;;;17.00;99.90;;;;;;4972257;28;20263;-74
2023/10/29 09:29:36;;;;;;;2.17;0.80;;;17.00;99.90;;;;;;4971751;28;20353;-77
2023/10/29 09:32:07;;;;;;;1.50;0.60;;;17.10;99.90;;;;;;4975110;28;20191;-77
2023/10/29 09:34:34;;;;;;;3.65;0.70;;;17.10;99.90;;;;;;4974903;28;20200;-77
2023/10/29 09:37:03;;;;;;;0.95;0.50;;;17.10;99.90;;;;;;4974459;28;20312;-77
2023/10/29 09:39:33;;;;;;;1.20;0.60;;;17.10;99.90;;;;;;4975079;28;20183;-75
2023/10/29 09:42:08;;;;;;;0.90;0.50;;;17.10;99.90;;;;;;4973000;28;20172;-74
2023/10/29 09:44:34;;;;;;;1.33;0.82;;;17.10;99.90;;;;;;4977478;28;20195;-74
2023/10/29 09:47:09;;;;;;;1.17;0.80;;;17.10;99.90;;;;;;4974171;28;20195;-77
2023/10/29 09:49:37;;;;;;;2.28;0.80;;;17.10;99.90;;;;;;4973302;28;21619;-73
2023/10/29 09:52:06;;;;;;;1.77;0.77;;;17.00;99.90;;;;;;4979181;28;20180;-77
2023/10/29 09:54:32;;;;;;;0.80;0.50;;;17.00;99.90;;;;;;4974606;28;20204;-75
2023/10/29 09:56:57;;;;;;;1.42;0.60;;;17.00;99.90;;;;;;4976665;28;20242;-74
2023/10/29 09:59:23;;;;;;;2.08;0.63;;;17.00;99.90;;;;;;4965001;28;20177;-78
2023/10/29 10:01:49;;;;;;;1.85;0.50;;;17.00;99.90;;;;;;4974457;28;20259;-77
2023/10/29 10:04:15;;;;;;;1.13;0.60;;;17.10;99.90;;;;;;4974981;28;20179;-77
2023/10/29 10:06:42;;;;;;;1.63;0.70;;;17.00;99.90;;;;;;4974645;28;20184;-76
2023/10/29 10:09:13;;;;;;;3.00;0.70;;;17.10;99.90;;;;;;4979526;28;20254;-77
2023/10/29 10:11:39;;;;;;;1.67;0.65;;;17.10;99.90;;;;;;4977679;28;20180;-71
2023/10/29 10:14:07;;;;;;;1.25;0.50;;;17.10;99.90;;;;;;4976638;28;20215;-75
2023/10/29 10:16:35;;;;;;;0.77;0.43;;;17.10;99.90;;;;;;4989522;28;20181;-77
2023/10/29 10:19:05;;;;;;;1.45;0.88;;;17.10;99.90;;;;;;4993369;28;20175;-76
2023/10/29 10:21:42;;;;;;;1.90;0.80;;;17.10;99.90;;;;;;4988078;28;20290;-73
2023/10/29 10:24:08;;;;;;;1.77;0.80;;;17.10;99.90;;;;;;4978926;28;20268;-77
2023/10/29 10:26:36;;;;;;;1.48;0.75;;;17.10;99.90;;;;;;4974466;28;20196;-78
2023/10/29 10:29:07;;;;;;;0.70;0.55;;;17.10;99.90;;;;;;4977750;28;20188;-72
2023/10/29 10:31:35;;;;;;;1.58;0.80;;;17.10;99.90;;;;;;4971782;28;20188;-77
2023/10/29 10:34:16;;;;;;;1.15;0.80;;;17.10;99.90;;;;;;4980866;28;20207;-78
2023/10/29 10:36:49;;;;;;;2.05;0.90;;;17.20;99.90;;;;;;4984199;28;20280;-76
2023/10/29 10:39:23;;;;;;;1.00;0.60;;;17.10;99.90;;;;;;4995897;28;20211;-76
2023/10/29 10:41:49;;;;;;;0.95;0.68;;;17.10;99.90;;;;;;4976568;28;20178;-74
2023/10/29 10:44:17;;;;;;;0.60;0.40;;;17.20;99.90;;;;;;4978003;28;20200;-77
2023/10/29 10:46:50;;;;;;;0.90;0.40;;;17.20;99.90;;;;;;4983593;28;20181;-76
2023/10/29 10:49:17;;;;;;;1.35;0.50;;;17.20;99.90;;;;;;4974977;28;20179;-76
2023/10/29 10:51:45;;;;;;;1.23;0.55;;;17.20;99.90;;;;;;4977572;28;20190;-75
2023/10/29 10:54:11;;;;;;;0.70;0.40;;;17.20;99.90;;;;;;4974240;28;20188;-76
2023/10/29 10:56:40;;;;;;;0.50;0.30;;;17.20;99.90;;;;;;4978406;28;20203;-77
2023/10/29 10:59:08;;;;;;;0.60;0.50;;;17.30;99.90;;;;;;4996106;28;20177;-75
2023/10/29 11:01:38;;;;;;;0.38;0.32;;;17.30;99.90;;;;;;4977385;28;20254;-75
2023/10/29 11:04:07;;;;;;;0.77;0.50;;;17.30;99.90;;;;;;4974995;28;20215;-77
2023/10/29 11:06:37;;;;;;;0.77;0.57;;;17.30;99.90;;;;;;4981347;28;20241;-77
2023/10/29 11:09:05;;;;;;;1.05;0.52;;;17.30;99.90;;;;;;4985300;28;20227;-76
2023/10/29 11:11:38;;;;;;;1.25;0.50;;;17.30;99.90;;;;;;4978711;28;20186;-76
2023/10/29 11:14:24;;;;;;;1.48;0.50;;;17.30;99.90;;;;;;4976656;28;20207;-76
2023/10/29 11:16:53;;;;;;;1.10;0.43;;;17.30;99.90;;;;;;4977167;28;20198;-74
2023/10/29 11:19:45;;;;;;;0.77;0.40;;;17.30;99.90;;;;;;4981437;28;20255;-74
2023/10/29 11:22:12;;;;;;;0.70;0.50;;;17.30;99.90;;;;;;4975704;28;20211;-76
2023/10/29 11:24:38;;;;;;;0.68;0.60;;;17.30;99.90;;;;;;4978817;28;20184;-77
2023/10/29 11:27:38;;;;;;;0.80;0.50;;;17.40;99.90;;;;;;4973083;28;20196;-74
2023/10/29 11:30:10;;;;;;;0.88;0.70;;;17.40;99.90;;;;;;4976885;28;20239;-76
2023/10/29 11:32:35;;;;;;;1.45;0.80;;;17.40;99.90;;;;;;4976814;28;20211;-77
2023/10/29 11:35:21;;;;;;;1.92;0.77;;;17.50;99.90;;;;;;4987796;28;20226;-76
2023/10/29 11:37:51;;;;;;;1.42;0.88;;;17.50;99.90;;;;;;4985340;28;20279;-75
2023/10/29 11:40:23;;;;;;;1.42;0.60;;;17.50;99.90;;;;;;4978139;28;20232;-77
2023/10/29 11:42:52;;;;;;;1.40;0.75;;;17.50;99.90;;;;;;4973504;28;20183;-77
2023/10/29 11:45:29;;;;;;;1.63;0.60;;;17.60;99.90;;;;;;4973707;28;20173;-77
2023/10/29 11:48:16;;;;;;;1.00;0.65;;;17.70;99.90;;;;;;4957733;28;20188;-75
2023/10/29 11:51:02;;;;;;;1.48;0.80;;;17.80;99.90;;;;;;4968421;28;20192;-74
2023/10/29 11:53:28;;;;;;;1.10;0.47;;;17.90;99.90;;;;;;4957373;28;20207;-74
2023/10/29 11:55:57;;;;;;;1.63;0.70;;;18.00;99.90;;;;;;4969193;28;20173;-71
2023/10/29 11:58:24;;;;;;;0.98;0.50;;;18.00;99.90;;;;;;4964180;28;20203;-76
2023/10/29 12:00:50;;;;;;;1.58;0.60;;;18.00;99.90;;;;;;4973638;28;20173;-77
2023/10/29 12:03:20;;;;;;;1.10;0.50;;;18.00;99.90;;;;;;4983639;28;20242;-76
2023/10/29 12:05:49;;;;;;;0.98;0.50;;;18.00;99.90;;;;;;4978857;28;20246;-77
2023/10/29 12:08:15;;;;;;;0.80;0.50;;;18.00;99.90;;;;;;4968915;28;20187;-79
2023/10/29 12:10:47;;;;;;;0.82;0.43;;;17.90;99.90;;;;;;4972652;28;20196;-74
2023/10/29 12:13:18;;;;;;;2.38;0.68;;;17.90;99.90;;;;;;4976379;28;20222;-77
2023/10/29 12:15:54;;;;;;;1.42;0.50;;;17.90;99.90;;;;;;4977735;28;20180;-76
2023/10/29 12:18:23;;;;;;;0.63;0.40;;;17.90;99.90;;;;;;4971972;28;20186;-77
2023/10/29 12:20:49;;;;;;;0.77;0.50;;;17.80;99.90;;;;;;4973407;28;20180;-75
2023/10/29 12:23:16;;;;;;;1.58;0.40;;;17.80;99.90;;;;;;4972247;28;20228;-75
2023/10/29 12:25:45;;;;;;;1.20;0.57;;;17.80;99.90;;;;;;4970658;28;20184;-77
2023/10/29 12:28:13;;;;;;;1.65;0.60;;;17.80;99.90;;;;;;4959902;28;20215;-78
2023/10/29 12:30:43;;;;;;;0.95;0.60;;;17.80;99.90;;;;;;4975389;28;20183;-79
2023/10/29 12:33:29;;;;;;;0.90;0.60;;;17.80;99.90;;;;;;4973101;28;20294;-76
2023/10/29 12:36:02;;;;;;;1.00;0.50;;;17.80;99.90;;;;;;4967165;28;20204;-79
2023/10/29 12:38:33;;;;;;;0.88;0.60;;;17.80;99.90;;;;;;4969643;28;20183;-78
2023/10/29 12:41:11;;;;;;;0.95;0.60;;;17.80;99.90;;;;;;4966695;28;20176;-80
2023/10/29 12:43:55;;;;;;;1.33;0.80;;;17.90;99.90;;;;;;4973098;28;20271;-78
2023/10/29 12:46:25;;;;;;;1.40;0.80;;;17.80;99.90;;;;;;4977216;28;20195;-74
2023/10/29 12:49:12;;;;;;;0.80;0.60;;;17.80;99.90;;;;;;4973070;28;20204;-80
2023/10/29 12:51:41;;;;;;;1.27;0.70;;;17.80;99.90;;;;;;4967879;28;20176;-77